createdAt,value
2023-02-17T00:01:32.445Z,32.20
2023-02-17T00:04:00.093Z,32.20
2023-02-17T00:06:29.235Z,32.20
2023-02-17T00:08:56.601Z,32.20
2023-02-17T00:11:23.791Z,32.10
2023-02-17T00:13:53.466Z,32.10
2023-02-17T00:16:25.468Z,32.10
2023-02-17T00:18:54.900Z,32.10
2023-02-17T00:21:24.332Z,32.10
2023-02-17T00:23:52.313Z,32.10
2023-02-17T00:26:20.769Z,32.10
2023-02-17T00:28:48.693Z,32.10
2023-02-17T00:31:19.470Z,32.10
2023-02-17T00:33:46.802Z,32.00
2023-02-17T00:36:17.765Z,32.10
2023-02-17T00:38:44.596Z,32.70
2023-02-17T00:41:11.539Z,31.90
2023-02-17T00:43:38.320Z,31.90
2023-02-17T00:46:06.045Z,31.90
2023-02-17T00:48:33.462Z,31.80
2023-02-17T00:51:00.412Z,31.80
2023-02-17T00:53:28.054Z,31.80
2023-02-17T00:55:54.830Z,31.80
2023-02-17T00:58:21.876Z,31.80
2023-02-17T01:00:48.720Z,31.70
2023-02-17T01:03:16.069Z,31.70
2023-02-17T01:05:45.466Z,31.70
2023-02-17T01:08:12.875Z,31.60
2023-02-17T01:10:42.473Z,31.50
2023-02-17T01:13:10.236Z,31.40
2023-02-17T01:15:42.080Z,31.40
2023-02-17T01:18:08.995Z,31.40
2023-02-17T01:20:37.576Z,31.30
2023-02-17T01:23:05.285Z,31.20
2023-02-17T01:25:32.064Z,31.20
2023-02-17T01:27:58.830Z,31.20
2023-02-17T01:30:25.805Z,31.20
2023-02-17T01:32:52.744Z,31.20
2023-02-17T01:35:19.616Z,31.20
2023-02-17T01:37:46.387Z,31.20
2023-02-17T01:40:17.182Z,31.20
2023-02-17T01:42:44.485Z,31.10
2023-02-17T01:45:20.414Z,31.10
2023-02-17T01:48:00.968Z,31.10
2023-02-17T01:51:00.875Z,31.10
2023-02-17T01:54:02.905Z,31.00
2023-02-17T01:56:33.157Z,31.00
2023-02-17T01:59:12.600Z,31.10
2023-02-17T02:01:40.109Z,31.10
2023-02-17T02:04:08.039Z,31.10
2023-02-17T02:06:38.633Z,31.10
2023-02-17T02:09:15.106Z,31.10
2023-02-17T02:11:41.948Z,31.20
2023-02-17T02:14:10.337Z,31.10
2023-02-17T02:16:45.713Z,31.10
2023-02-17T02:19:12.611Z,31.10
2023-02-17T02:22:04.138Z,31.00
2023-02-17T02:24:52.599Z,31.00
2023-02-17T02:27:46.804Z,30.90
2023-02-17T02:30:45.410Z,30.70
2023-02-17T02:33:22.384Z,30.70
2023-02-17T02:36:17.499Z,30.50
2023-02-17T02:39:00.208Z,30.50
2023-02-17T02:41:32.887Z,30.50
2023-02-17T02:43:59.795Z,30.50
2023-02-17T02:46:26.588Z,30.60
2023-02-17T02:48:53.612Z,30.70
2023-02-17T02:51:24.591Z,31.00
2023-02-17T02:53:54.064Z,31.30
2023-02-17T02:56:41.794Z,31.60
2023-02-17T02:59:36.544Z,31.90
2023-02-17T03:02:25.416Z,32.10
2023-02-17T03:04:58.276Z,32.30
2023-02-17T03:07:40.594Z,32.40
2023-02-17T03:10:08.328Z,32.40
2023-02-17T03:12:37.967Z,32.40
2023-02-17T03:15:20.761Z,32.50
2023-02-17T03:17:47.601Z,32.50
2023-02-17T03:20:15.511Z,32.50
2023-02-17T03:22:47.263Z,32.50
2023-02-17T03:25:14.810Z,32.50
2023-02-17T03:27:41.674Z,33.20
2023-02-17T03:30:10.192Z,32.50
2023-02-17T03:32:37.358Z,32.60
2023-02-17T03:35:04.779Z,32.60
2023-02-17T03:37:31.559Z,32.60
2023-02-17T03:39:58.314Z,32.70
2023-02-17T03:42:25.225Z,32.80
2023-02-17T03:44:52.011Z,32.80
2023-02-17T03:47:18.760Z,32.70
2023-02-17T03:49:45.702Z,32.70
2023-02-17T03:52:12.440Z,32.70
2023-02-17T03:54:39.319Z,32.70
2023-02-17T03:57:06.120Z,32.70
2023-02-17T03:59:33.037Z,32.60
2023-02-17T04:01:59.791Z,32.60
2023-02-17T04:04:26.603Z,32.60
2023-02-17T04:06:53.378Z,32.60
2023-02-17T04:09:20.134Z,32.60
2023-02-17T04:11:47.187Z,32.60
2023-02-17T04:14:14.072Z,32.60
2023-02-17T04:16:40.879Z,32.60
2023-02-17T04:19:08.023Z,32.70
2023-02-17T04:21:35.111Z,32.70
2023-02-17T04:24:02.864Z,32.90
2023-02-17T04:26:30.345Z,32.90
2023-02-17T04:28:57.287Z,32.90
2023-02-17T04:31:25.929Z,33.00
2023-02-17T04:33:52.882Z,33.00
2023-02-17T04:36:19.833Z,32.90
2023-02-17T04:38:46.587Z,32.90
2023-02-17T04:41:13.548Z,32.90
2023-02-17T04:43:40.320Z,32.80
2023-02-17T04:46:07.657Z,32.90
2023-02-17T04:48:34.961Z,33.00
2023-02-17T04:51:01.711Z,33.00
2023-02-17T04:53:28.992Z,33.00
2023-02-17T04:55:55.783Z,33.00
2023-02-17T04:58:22.710Z,33.10
2023-02-17T05:00:50.611Z,33.10
2023-02-17T05:03:18.622Z,33.10
2023-02-17T05:05:45.633Z,33.20
2023-02-17T05:08:12.439Z,33.20
2023-02-17T05:10:39.345Z,33.30
2023-02-17T05:13:06.288Z,33.40
2023-02-17T05:15:34.882Z,33.40
2023-02-17T05:18:02.619Z,34.30
2023-02-17T05:20:29.619Z,33.60
2023-02-17T05:22:56.398Z,33.70
2023-02-17T05:25:23.182Z,33.80
2023-02-17T05:27:50.012Z,33.80
2023-02-17T05:30:16.991Z,33.80
2023-02-17T05:32:43.804Z,33.80
2023-02-17T05:35:10.563Z,33.80
2023-02-17T05:37:37.348Z,33.90
2023-02-17T05:40:04.756Z,34.00
2023-02-17T05:42:31.708Z,34.00
2023-02-17T05:44:58.482Z,34.00
2023-02-17T05:47:27.582Z,34.00
2023-02-17T05:49:54.505Z,34.10
2023-02-17T05:52:21.282Z,34.10
2023-02-17T05:54:48.097Z,34.20
2023-02-17T05:57:14.902Z,34.50
2023-02-17T05:59:41.660Z,34.30
2023-02-17T06:02:08.449Z,34.20
2023-02-17T06:04:35.384Z,34.20
2023-02-17T06:07:02.279Z,34.20
2023-02-17T06:09:29.288Z,34.20
2023-02-17T06:11:56.060Z,34.20
2023-02-17T06:14:22.860Z,34.10
2023-02-17T06:16:49.655Z,34.20
2023-02-17T06:19:16.437Z,34.10
2023-02-17T06:21:43.196Z,34.10
2023-02-17T06:24:09.999Z,34.10
2023-02-17T06:26:36.777Z,34.10
2023-02-17T06:29:03.668Z,34.10
2023-02-17T06:31:30.555Z,34.10
2023-02-17T06:33:57.371Z,34.10
2023-02-17T06:36:24.275Z,34.10
2023-02-17T06:38:51.097Z,34.10
2023-02-17T06:41:17.881Z,34.10
2023-02-17T06:43:44.657Z,34.10
2023-02-17T06:46:11.863Z,34.20
2023-02-17T06:48:38.700Z,34.20
2023-02-17T06:51:05.621Z,34.10
2023-02-17T06:53:32.409Z,34.00
2023-02-17T06:55:59.385Z,34.00
2023-02-17T06:58:26.204Z,34.00
2023-02-17T07:00:52.983Z,34.00
2023-02-17T07:03:19.798Z,34.10
2023-02-17T07:05:46.742Z,34.10
2023-02-17T07:08:13.626Z,34.20
2023-02-17T07:10:40.454Z,34.20
2023-02-17T07:13:07.650Z,34.20
2023-02-17T07:15:34.946Z,34.20
2023-02-17T07:18:03.074Z,34.20
2023-02-17T07:20:31.921Z,34.30
2023-02-17T07:23:00.244Z,34.30
2023-02-17T07:25:27.040Z,34.30
2023-02-17T07:27:53.838Z,34.30
2023-02-17T07:30:20.799Z,34.40
2023-02-17T07:32:47.659Z,34.50
2023-02-17T07:35:14.450Z,34.60
2023-02-17T07:37:41.271Z,34.70
2023-02-17T07:40:08.415Z,34.70
2023-02-17T07:42:35.191Z,34.70
2023-02-17T07:45:01.930Z,34.60
2023-02-17T07:47:28.895Z,34.50
2023-02-17T07:49:55.916Z,34.60
2023-02-17T07:52:22.792Z,34.60
2023-02-17T07:54:49.622Z,34.50
2023-02-17T07:57:16.423Z,34.50
2023-02-17T07:59:43.201Z,34.50
2023-02-17T08:02:11.825Z,34.50
2023-02-17T08:04:38.659Z,34.60
2023-02-17T08:07:05.475Z,34.70
2023-02-17T08:09:51.098Z,34.80
2023-02-17T08:12:38.338Z,34.90
2023-02-17T08:15:07.620Z,35.00
2023-02-17T08:17:34.559Z,35.20
2023-02-17T08:20:07.959Z,35.20
2023-02-17T08:22:35.187Z,35.20
2023-02-17T08:25:01.992Z,35.20
2023-02-17T08:27:29.240Z,35.40
2023-02-17T08:29:56.091Z,35.50
2023-02-17T08:32:22.992Z,35.40
2023-02-17T08:34:50.076Z,35.60
2023-02-17T08:37:16.920Z,35.60
2023-02-17T08:39:43.949Z,35.70
2023-02-17T08:42:12.098Z,35.70
2023-02-17T08:44:39.138Z,35.70
2023-02-17T08:47:06.721Z,35.70
2023-02-17T08:49:33.558Z,35.70
2023-02-17T08:52:00.551Z,35.70
2023-02-17T08:54:27.659Z,35.70
2023-02-17T08:56:54.564Z,35.70
2023-02-17T08:59:21.761Z,35.80
2023-02-17T09:01:48.591Z,35.90
2023-02-17T09:04:16.327Z,36.00
2023-02-17T09:06:46.731Z,36.10
2023-02-17T09:09:16.088Z,36.20
2023-02-17T09:11:43.418Z,36.30
2023-02-17T09:14:10.491Z,36.30
2023-02-17T09:16:41.421Z,36.20
2023-02-17T09:19:08.706Z,36.20
2023-02-17T09:21:35.617Z,36.20
2023-02-17T09:24:02.478Z,36.20
2023-02-17T09:26:29.675Z,36.20
2023-02-17T09:28:57.867Z,36.10
2023-02-17T09:31:26.807Z,36.00
2023-02-17T09:33:54.521Z,36.00
2023-02-17T09:36:26.841Z,36.00
2023-02-17T09:38:53.851Z,36.10
2023-02-17T09:41:42.335Z,36.20
2023-02-17T09:44:43.336Z,36.40
2023-02-17T09:47:18.189Z,36.40
2023-02-17T09:49:53.694Z,36.50
2023-02-17T09:52:49.113Z,36.50
2023-02-17T09:55:41.000Z,36.50
2023-02-17T09:58:21.464Z,36.40
2023-02-17T10:00:53.488Z,36.40
2023-02-17T10:03:31.027Z,36.40
2023-02-17T10:06:24.406Z,36.30
2023-02-17T10:09:01.068Z,36.20
2023-02-17T10:11:35.200Z,36.10
2023-02-17T10:14:11.334Z,36.10
2023-02-17T10:17:19.196Z,36.00
2023-02-17T10:20:04.722Z,35.90
2023-02-17T10:22:32.851Z,35.90
2023-02-17T10:25:01.844Z,35.90
2023-02-17T10:27:41.410Z,36.10
2023-02-17T10:30:08.467Z,36.10
2023-02-17T10:32:58.221Z,36.10
2023-02-17T10:35:53.260Z,36.10
2023-02-17T10:38:22.826Z,36.20
2023-02-17T10:40:51.523Z,36.20
2023-02-17T10:43:26.970Z,36.20
2023-02-17T10:45:54.422Z,36.20
2023-02-17T10:48:34.524Z,36.20
2023-02-17T10:51:01.905Z,36.20
2023-02-17T10:53:33.140Z,36.10
2023-02-17T10:56:14.482Z,36.20
2023-02-17T10:58:41.282Z,36.10
2023-02-17T11:01:08.614Z,36.00
2023-02-17T11:03:38.166Z,36.00
2023-02-17T11:06:15.071Z,36.00
2023-02-17T11:09:33.156Z,36.00
2023-02-17T11:12:25.049Z,35.90
2023-02-17T11:14:54.919Z,36.60
2023-02-17T11:17:34.500Z,35.80
2023-02-17T11:20:06.024Z,35.80
2023-02-17T11:22:49.192Z,35.80
2023-02-17T11:25:23.221Z,36.50
2023-02-17T11:27:55.674Z,35.70
2023-02-17T11:30:23.641Z,35.70
2023-02-17T11:32:50.768Z,35.60
2023-02-17T11:35:41.697Z,35.60
2023-02-17T11:38:21.409Z,35.60
2023-02-17T11:40:55.964Z,35.40
2023-02-17T11:43:23.730Z,35.50
2023-02-17T11:46:00.732Z,35.50
2023-02-17T11:48:39.852Z,35.50
2023-02-17T11:51:31.030Z,35.50
2023-02-17T11:54:04.329Z,35.50
2023-02-17T11:56:36.837Z,35.50
2023-02-17T11:59:24.900Z,35.50
2023-02-17T12:02:00.806Z,35.50
2023-02-17T12:04:32.737Z,35.60
2023-02-17T12:07:24.758Z,35.80
2023-02-17T12:09:57.795Z,36.00
2023-02-17T12:12:33.723Z,36.20
2023-02-17T12:15:27.569Z,36.50
2023-02-17T12:18:21.890Z,36.80
2023-02-17T12:20:54.274Z,36.90
2023-02-17T12:23:38.872Z,37.20
2023-02-17T12:26:34.732Z,37.20
2023-02-17T12:29:23.552Z,37.20
2023-02-17T12:32:26.119Z,37.20
2023-02-17T12:35:03.757Z,37.20
2023-02-17T12:37:38.508Z,37.20
2023-02-17T12:40:43.495Z,37.20
2023-02-17T12:43:49.223Z,37.20
2023-02-17T12:46:29.394Z,37.30
2023-02-17T12:49:06.568Z,37.30
2023-02-17T12:52:02.423Z,37.30
2023-02-17T12:54:32.457Z,37.40
2023-02-17T12:57:37.179Z,37.40
2023-02-17T13:00:23.765Z,37.40
2023-02-17T13:02:50.658Z,37.50
2023-02-17T13:05:26.457Z,37.60
2023-02-17T13:08:11.376Z,37.70
2023-02-17T13:10:40.738Z,37.60
2023-02-17T13:13:14.256Z,37.80
2023-02-17T13:15:45.660Z,37.80
2023-02-17T13:18:14.154Z,38.00
2023-02-17T13:20:57.047Z,38.20
2023-02-17T13:23:37.469Z,38.40
2023-02-17T13:26:21.789Z,38.60
2023-02-17T13:28:50.580Z,38.50
2023-02-17T13:31:26.315Z,38.50
2023-02-17T13:33:59.498Z,38.60
2023-02-17T13:36:29.067Z,38.60
2023-02-17T13:39:04.957Z,38.70
2023-02-17T13:41:47.042Z,38.70
2023-02-17T13:44:28.783Z,38.60
2023-02-17T13:47:03.776Z,38.50
2023-02-17T13:49:34.978Z,38.50
2023-02-17T13:52:19.588Z,38.50
2023-02-17T13:55:05.568Z,38.60
2023-02-17T13:57:34.964Z,38.60
2023-02-17T14:00:09.155Z,38.40
2023-02-17T14:02:45.270Z,38.50
2023-02-17T14:05:19.625Z,38.80
2023-02-17T14:07:48.556Z,39.10
2023-02-17T14:10:22.351Z,39.20
2023-02-17T14:12:49.809Z,39.30
2023-02-17T14:15:19.309Z,39.40
2023-02-17T14:17:46.618Z,39.70
2023-02-17T14:20:49.718Z,39.60
2023-02-17T14:23:23.968Z,39.80
2023-02-17T14:25:52.840Z,39.80
2023-02-17T14:28:27.054Z,39.80
2023-02-17T14:30:54.103Z,39.80
2023-02-17T14:33:24.008Z,39.90
2023-02-17T14:35:55.533Z,40.70
2023-02-17T14:38:27.596Z,40.10
2023-02-17T14:40:55.923Z,40.10
2023-02-17T14:43:23.525Z,40.10
2023-02-17T14:45:51.249Z,40.00
2023-02-17T14:48:18.320Z,40.00
2023-02-17T14:50:45.926Z,40.00
2023-02-17T14:53:31.139Z,39.90
2023-02-17T14:56:07.341Z,39.90
2023-02-17T14:58:34.507Z,40.00
2023-02-17T15:01:01.851Z,40.00
2023-02-17T15:03:28.708Z,40.00
2023-02-17T15:05:55.684Z,40.10
2023-02-17T15:08:29.674Z,40.20
2023-02-17T15:10:56.476Z,40.30
2023-02-17T15:13:23.350Z,40.50
2023-02-17T15:15:50.228Z,40.50
2023-02-17T15:18:19.639Z,40.50
2023-02-17T15:20:50.249Z,40.50
2023-02-17T15:23:19.639Z,40.40
2023-02-17T15:25:47.202Z,40.40
2023-02-17T15:28:16.250Z,40.30
2023-02-17T15:30:46.420Z,40.20
2023-02-17T15:33:13.804Z,40.20
2023-02-17T15:35:41.033Z,40.20
2023-02-17T15:38:12.663Z,40.20
2023-02-17T15:40:40.609Z,40.10
2023-02-17T15:43:12.184Z,40.10
2023-02-17T15:45:39.015Z,40.00
2023-02-17T15:48:24.672Z,40.00
2023-02-17T15:50:52.107Z,39.80
2023-02-17T15:53:19.357Z,39.70
2023-02-17T15:55:46.985Z,39.70
2023-02-17T15:58:17.211Z,39.90
2023-02-17T16:00:49.828Z,40.00
2023-02-17T16:03:17.384Z,40.20
2023-02-17T16:05:44.451Z,40.40
2023-02-17T16:08:11.615Z,40.30
2023-02-17T16:10:40.433Z,40.40
2023-02-17T16:13:08.002Z,40.50
2023-02-17T16:15:37.506Z,40.50
2023-02-17T16:18:04.390Z,40.50
2023-02-17T16:20:34.623Z,40.50
2023-02-17T16:23:02.221Z,40.40
2023-02-17T16:25:29.769Z,40.30
2023-02-17T16:27:57.187Z,40.40
2023-02-17T16:30:33.864Z,40.50
2023-02-17T16:33:01.522Z,40.50
2023-02-17T16:35:31.715Z,41.10
2023-02-17T16:38:12.761Z,40.40
2023-02-17T16:40:47.377Z,40.20
2023-02-17T16:43:16.580Z,39.40
2023-02-17T16:45:54.693Z,39.50
2023-02-17T16:48:27.136Z,39.70
2023-02-17T16:50:54.145Z,39.70
2023-02-17T16:53:21.613Z,39.80
2023-02-17T16:55:49.038Z,39.90
2023-02-17T16:58:22.376Z,40.10
2023-02-17T17:00:52.115Z,40.30
2023-02-17T17:03:20.110Z,40.50
2023-02-17T17:05:46.952Z,41.30
2023-02-17T17:08:16.346Z,40.70
2023-02-17T17:10:45.077Z,40.80
2023-02-17T17:13:12.861Z,40.80
2023-02-17T17:15:43.696Z,40.90
2023-02-17T17:18:18.840Z,40.90
2023-02-17T17:20:45.696Z,40.80
2023-02-17T17:23:14.950Z,40.70
2023-02-17T17:25:45.630Z,40.70
2023-02-17T17:28:19.713Z,40.50
2023-02-17T17:30:47.474Z,40.50
2023-02-17T17:33:14.484Z,40.30
2023-02-17T17:35:41.242Z,40.10
2023-02-17T17:38:09.645Z,40.00
2023-02-17T17:40:48.203Z,39.80
2023-02-17T17:43:16.926Z,39.70
2023-02-17T17:45:43.767Z,39.60
2023-02-17T17:48:14.207Z,39.40
2023-02-17T17:50:41.434Z,39.40
2023-02-17T17:53:08.722Z,39.40
2023-02-17T17:55:35.916Z,39.50
2023-02-17T17:58:03.028Z,39.70
2023-02-17T18:00:29.987Z,39.70
2023-02-17T18:02:56.810Z,39.70
2023-02-17T18:05:23.699Z,39.70
2023-02-17T18:07:50.965Z,39.70
2023-02-17T18:10:18.021Z,39.70
2023-02-17T18:12:47.057Z,39.60
2023-02-17T18:15:15.385Z,39.60
2023-02-17T18:17:43.084Z,39.50
2023-02-17T18:20:11.531Z,39.60
2023-02-17T18:22:38.559Z,39.60
2023-02-17T18:25:06.020Z,39.70
2023-02-17T18:27:44.598Z,39.60
2023-02-17T18:30:14.320Z,39.50
2023-02-17T18:32:42.098Z,39.50
2023-02-17T18:35:10.125Z,39.40
2023-02-17T18:37:36.900Z,39.30
2023-02-17T18:40:04.223Z,39.20
2023-02-17T18:42:31.504Z,39.10
2023-02-17T18:44:58.255Z,39.30
2023-02-17T18:47:25.042Z,39.30
2023-02-17T18:49:52.100Z,39.40
2023-02-17T18:52:18.998Z,39.50
2023-02-17T18:54:46.209Z,39.70
2023-02-17T18:57:13.097Z,39.80
2023-02-17T18:59:39.905Z,39.90
2023-02-17T19:02:08.861Z,39.90
2023-02-17T19:04:36.070Z,39.90
2023-02-17T19:07:04.080Z,39.90
2023-02-17T19:09:36.046Z,40.00
2023-02-17T19:12:02.920Z,39.90
2023-02-17T19:14:33.161Z,39.90
2023-02-17T19:16:59.925Z,40.00
2023-02-17T19:19:30.228Z,39.90
2023-02-17T19:21:57.690Z,39.90
2023-02-17T19:24:24.427Z,39.80
2023-02-17T19:26:51.345Z,39.70
2023-02-17T19:29:18.150Z,39.60
2023-02-17T19:31:44.964Z,39.50
2023-02-17T19:34:11.970Z,39.40
2023-02-17T19:36:38.752Z,39.30
2023-02-17T19:39:05.973Z,39.20
2023-02-17T19:41:34.973Z,39.20
2023-02-17T19:44:02.712Z,39.10
2023-02-17T19:46:29.796Z,39.10
2023-02-17T19:48:56.840Z,39.00
2023-02-17T19:51:23.856Z,39.00
2023-02-17T19:53:50.639Z,39.00
2023-02-17T19:56:23.579Z,39.10
2023-02-17T19:58:50.710Z,39.20
2023-02-17T20:01:23.573Z,39.20
2023-02-17T20:03:51.339Z,39.40
2023-02-17T20:06:25.002Z,40.30
2023-02-17T20:08:54.399Z,39.70
2023-02-17T20:11:21.495Z,39.90
2023-02-17T20:13:48.300Z,40.10
2023-02-17T20:16:16.477Z,40.10
2023-02-17T20:18:45.763Z,40.30
2023-02-17T20:21:15.734Z,40.30
2023-02-17T20:23:42.594Z,40.20
2023-02-17T20:26:12.289Z,40.20
2023-02-17T20:28:39.269Z,40.30
2023-02-17T20:31:06.979Z,40.20
2023-02-17T20:33:34.068Z,40.20
2023-02-17T20:36:00.841Z,40.20
2023-02-17T20:38:28.052Z,41.00
2023-02-17T20:40:55.420Z,40.20
2023-02-17T20:43:22.227Z,40.10
2023-02-17T20:45:49.740Z,40.10
2023-02-17T20:48:19.391Z,40.00
2023-02-17T20:50:46.562Z,40.10
2023-02-17T20:53:13.324Z,40.00
2023-02-17T20:55:40.162Z,40.10
2023-02-17T20:58:07.281Z,40.20
2023-02-17T21:00:34.103Z,40.20
2023-02-17T21:03:01.149Z,40.20
2023-02-17T21:05:28.000Z,40.30
2023-02-17T21:07:56.509Z,40.30
2023-02-17T21:10:27.109Z,40.20
2023-02-17T21:12:54.422Z,40.30
2023-02-17T21:15:22.119Z,40.30
2023-02-17T21:17:48.864Z,40.40
2023-02-17T21:20:18.911Z,40.40
2023-02-17T21:22:45.826Z,40.60
2023-02-17T21:25:12.908Z,40.60
2023-02-17T21:27:39.744Z,40.70
2023-02-17T21:30:08.301Z,40.70
2023-02-17T21:32:35.337Z,40.70
2023-02-17T21:35:02.352Z,40.80
2023-02-17T21:37:29.472Z,40.70
2023-02-17T21:39:56.323Z,40.70
2023-02-17T21:42:44.633Z,40.80
2023-02-17T21:45:13.545Z,40.90
2023-02-17T21:47:40.310Z,40.90
2023-02-17T21:50:07.755Z,41.10
2023-02-17T21:52:34.472Z,41.20
2023-02-17T21:55:01.607Z,41.30
2023-02-17T21:57:28.602Z,41.40
2023-02-17T21:59:55.366Z,41.40
2023-02-17T22:02:22.202Z,41.40
2023-02-17T22:04:49.064Z,41.50
2023-02-17T22:07:15.888Z,41.50
2023-02-17T22:09:42.700Z,41.50
2023-02-17T22:12:09.438Z,41.50
2023-02-17T22:14:36.264Z,41.50
2023-02-17T22:17:03.146Z,41.50
2023-02-17T22:19:31.540Z,41.60
2023-02-17T22:21:58.617Z,41.60
2023-02-17T22:24:27.178Z,41.60
2023-02-17T22:26:54.786Z,41.50
2023-02-17T22:29:21.688Z,41.50
2023-02-17T22:31:50.377Z,41.50
2023-02-17T22:34:17.586Z,41.40
2023-02-17T22:36:44.635Z,41.60
2023-02-17T22:39:11.383Z,41.50
2023-02-17T22:41:39.322Z,41.60
2023-02-17T22:44:06.518Z,41.50
2023-02-17T22:46:34.262Z,41.50
2023-02-17T22:49:01.559Z,41.40
2023-02-17T22:51:36.233Z,41.50
2023-02-17T22:54:03.511Z,41.50
2023-02-17T22:56:30.657Z,41.70
2023-02-17T22:59:00.967Z,41.70
2023-02-17T23:01:30.054Z,41.70
2023-02-17T23:03:56.886Z,41.80
2023-02-17T23:06:26.729Z,42.00
2023-02-17T23:08:54.119Z,42.00
2023-02-17T23:11:43.821Z,42.00
2023-02-17T23:14:12.104Z,41.90
2023-02-17T23:16:39.432Z,41.90
2023-02-17T23:19:12.586Z,41.90
2023-02-17T23:21:50.352Z,41.90
2023-02-17T23:24:18.372Z,41.90
2023-02-17T23:26:47.408Z,41.90
2023-02-17T23:29:15.196Z,41.90
2023-02-17T23:31:42.001Z,41.90
2023-02-17T23:34:10.957Z,41.90
2023-02-17T23:36:42.180Z,41.90
2023-02-17T23:39:09.353Z,41.90
2023-02-17T23:41:37.336Z,41.90
2023-02-17T23:44:04.922Z,41.90
2023-02-17T23:46:31.872Z,41.90
2023-02-17T23:48:58.716Z,41.90
2023-02-17T23:51:25.794Z,42.00
2023-02-17T23:53:52.788Z,42.00
2023-02-17T23:56:27.030Z,42.10
2023-02-17T23:58:54.311Z,42.30
